Time;durP1;ratioP1;P1;durP2;ratioP2;P2;SDS_P1;SDS_P2;PMS_P1;PMS_P2;Temp;Humidity;BMP_temperature;BMP_pressure;BME280_temperature;BME280_humidity;BME280_pressure;Samples;Min_cycle;Max_cycle;Signal;HPM_P1;HPM_P2
2023/08/31 00:01:23;;;;;;;;;;;17.90;99.90;;;;;;5114072;28;20143;-68
2023/08/31 00:03:50;;;;;;;;;;;17.80;99.90;;;;;;5114779;28;20702;-68
2023/08/31 00:06:16;;;;;;;;;;;18.00;99.90;;;;;;5114979;28;20178;-68
2023/08/31 00:08:43;;;;;;;;;;;18.10;99.90;;;;;;5114432;28;20137;-68
2023/08/31 00:11:10;;;;;;;;;;;18.00;99.90;;;;;;5114185;28;20198;-67
2023/08/31 00:13:38;;;;;;;;;;;18.20;99.90;;;;;;5114721;28;20207;-67
2023/08/31 00:16:05;;;;;;;;;;;18.50;99.90;;;;;;5113534;28;20246;-68
2023/08/31 00:18:31;;;;;;;;;;;19.00;99.90;;;;;;5114678;28;20178;-68
2023/08/31 00:20:58;;;;;;;;;;;20.00;99.90;;;;;;5114012;28;20155;-68
2023/08/31 00:23:25;;;;;;;;;;;21.00;99.90;;;;;;5114002;28;20182;-68
2023/08/31 00:25:53;;;;;;;;;;;22.30;99.90;;;;;;5113883;28;20713;-68
2023/08/31 00:28:21;;;;;;;;;;;22.50;99.90;;;;;;5096821;28;20153;-68
2023/08/31 00:30:48;;;;;;;;;;;21.70;99.90;;;;;;5115993;28;20173;-68
2023/08/31 00:33:15;;;;;;;;;;;21.40;99.90;;;;;;5119535;27;20154;-68
2023/08/31 00:35:43;;;;;;;;;;;20.70;99.90;;;;;;5117211;27;20157;-67
2023/08/31 00:38:10;;;;;;;;;;;20.80;99.90;;;;;;5115678;28;20157;-68
2023/08/31 00:40:50;;;;;;;;;;;21.60;99.90;;;;;;5115812;28;20184;-68
2023/08/31 00:43:17;;;;;;;;;;;22.20;99.90;;;;;;5096438;28;20152;-68
2023/08/31 00:45:45;;;;;;;;;;;22.50;99.90;;;;;;5094954;28;20264;-68
2023/08/31 00:48:12;;;;;;;;;;;22.40;99.90;;;;;;5107612;28;20145;-68
2023/08/31 00:50:39;;;;;;;;;;;22.70;99.90;;;;;;5115709;28;20167;-68
2023/08/31 00:53:05;;;;;;;;;;;23.00;99.90;;;;;;5114884;28;20158;-68
2023/08/31 00:55:32;;;;;;;;;;;23.70;99.90;;;;;;5115266;28;20204;-68
2023/08/31 00:58:02;;;;;;;;;;;24.20;99.90;;;;;;5114008;28;20171;-68
2023/08/31 01:00:55;;;;;;;;;;;24.40;99.90;;;;;;5092786;28;20563;-68
2023/08/31 01:03:34;;;;;;;;;;;23.50;99.90;;;;;;5118549;27;20627;-67
2023/08/31 01:06:10;;;;;;;;;;;22.60;99.90;;;;;;5119624;27;20559;-68
2023/08/31 01:08:37;;;;;;;;;;;23.10;99.90;;;;;;5115642;27;20680;-68
2023/08/31 01:11:20;;;;;;;;;;;23.60;99.90;;;;;;5112991;28;20520;-68
2023/08/31 01:13:51;;;;;;;;;;;23.80;99.90;;;;;;5112744;28;20145;-68
2023/08/31 01:16:19;;;;;;;;;;;24.70;99.90;;;;;;5112662;28;20151;-69
2023/08/31 01:18:47;;;;;;;;;;;25.20;99.90;;;;;;5112030;28;20622;-69
2023/08/31 01:21:22;;;;;;;;;;;25.40;99.90;;;;;;5112146;28;20198;-68
2023/08/31 01:23:55;;;;;;;;;;;24.60;99.90;;;;;;5120485;27;20617;-69
2023/08/31 01:26:23;;;;;;;;;;;23.60;99.90;;;;;;5112075;28;20183;-68
2023/08/31 01:28:50;;;;;;;;;;;24.10;99.90;;;;;;5112526;28;20615;-68
2023/08/31 01:31:17;;;;;;;;;;;24.20;99.90;;;;;;5112072;28;20160;-68
2023/08/31 01:33:44;;;;;;;;;;;24.40;99.90;;;;;;5112292;28;20630;-68
2023/08/31 01:36:24;;;;;;;;;;;24.10;99.90;;;;;;5112215;28;20559;-68
2023/08/31 01:38:56;;;;;;;;;;;24.30;99.90;;;;;;5112013;28;20518;-69
2023/08/31 01:41:22;;;;;;;;;;;23.30;99.90;;;;;;5097118;27;20141;-68
2023/08/31 01:43:51;;;;;;;;;;;22.20;99.90;;;;;;5121551;27;20156;-68
2023/08/31 01:46:18;;;;;;;;;;;23.40;99.90;;;;;;5117666;27;20201;-69
2023/08/31 01:48:45;;;;;;;;;;;24.20;99.90;;;;;;5112375;28;20155;-70
2023/08/31 01:51:12;;;;;;;;;;;23.90;99.90;;;;;;5126311;27;20168;-68
2023/08/31 01:53:39;;;;;;;;;;;24.50;99.90;;;;;;5118794;27;20169;-68
2023/08/31 01:56:05;;;;;;;;;;;24.80;99.90;;;;;;5112324;28;20144;-68
2023/08/31 01:58:32;;;;;;;;;;;25.00;99.90;;;;;;5111662;28;20519;-68
2023/08/31 02:00:59;;;;;;;;;;;25.60;99.90;;;;;;5111457;28;20640;-68
2023/08/31 02:03:26;;;;;;;;;;;24.70;99.90;;;;;;5095116;28;20173;-68
2023/08/31 02:05:53;;;;;;;;;;;24.80;99.90;;;;;;5113901;28;20237;-69
2023/08/31 02:08:19;;;;;;;;;;;25.20;99.90;;;;;;5113607;28;20204;-68
2023/08/31 02:10:49;;;;;;;;;;;25.90;99.90;;;;;;5119155;27;20219;-68
2023/08/31 02:13:16;;;;;;;;;;;26.40;99.90;;;;;;5121028;27;20270;-68
2023/08/31 02:15:43;;;;;;;;;;;26.00;99.90;;;;;;5123090;27;20176;-69
2023/08/31 02:18:10;;;;;;;;;;;25.00;99.90;;;;;;5122350;27;20155;-68
2023/08/31 02:20:37;;;;;;;5.10;1.33;;;24.20;99.90;;;;;;5119566;27;20650;-68
2023/08/31 02:23:06;;;;;;;6.07;1.40;;;23.30;99.90;;;;;;5125565;27;20255;-68
2023/08/31 02:25:34;;;;;;;7.50;1.90;;;22.20;99.90;;;;;;5124135;27;20244;-68
2023/08/31 02:28:01;;;;;;;4.33;1.00;;;21.60;99.90;;;;;;5126358;27;20174;-69
2023/08/31 02:30:29;;;;;;;3.07;1.20;;;22.10;99.90;;;;;;5104227;28;20214;-70
2023/08/31 02:32:56;;;;;;;7.90;1.60;;;23.60;99.90;;;;;;5124970;27;20181;-69
2023/08/31 02:35:24;;;;;;;7.17;1.53;;;23.90;99.90;;;;;;5122137;27;20178;-68
2023/08/31 02:37:51;;;;;;;5.97;1.47;;;23.00;99.90;;;;;;5124809;27;20641;-69
2023/08/31 02:40:20;;;;;;;5.97;1.40;;;22.50;99.90;;;;;;5118665;27;20264;-70
2023/08/31 02:42:52;;;;;;;4.30;1.20;;;21.90;99.90;;;;;;5125897;27;20194;-69
2023/08/31 02:45:19;;;;;;;5.43;1.40;;;21.50;99.90;;;;;;5090465;28;20214;-69
2023/08/31 02:47:49;;;;;;;7.43;1.60;;;21.40;99.90;;;;;;5090622;28;20547;-69
2023/08/31 02:50:16;;;;;;;3.77;1.40;;;21.50;99.90;;;;;;5112056;28;20261;-69
2023/08/31 02:52:44;;;;;;;6.97;1.53;;;22.30;99.90;;;;;;5112350;28;20236;-69
2023/08/31 02:55:11;;;;;;;7.27;1.60;;;23.20;99.90;;;;;;5111196;28;20563;-69
2023/08/31 02:57:39;;;;;;;5.70;1.40;;;23.90;99.90;;;;;;5112058;28;20182;-69
2023/08/31 03:00:12;;;;;;;7.17;1.30;;;24.50;99.90;;;;;;5111955;28;20786;-69
2023/08/31 03:02:40;;;;;;;6.50;1.50;;;25.00;99.90;;;;;;5111249;28;20182;-69
2023/08/31 03:05:08;;;;;;;6.67;1.63;;;25.10;99.90;;;;;;5117022;27;20280;-70
2023/08/31 03:07:35;;;;;;;5.90;1.37;;;25.00;99.90;;;;;;5117134;27;20231;-69
2023/08/31 03:10:03;;;;;;;2.50;1.03;;;25.40;99.90;;;;;;5120783;27;20179;-69
2023/08/31 03:12:30;;;;;;;4.70;1.00;;;25.70;99.90;;;;;;5121585;27;20223;-68
2023/08/31 03:14:58;;;;;;;5.83;1.30;;;25.40;99.90;;;;;;5120160;27;20265;-68
2023/08/31 03:17:25;;;;;;;4.60;1.27;;;25.50;99.90;;;;;;5117963;27;20206;-68
2023/08/31 03:19:52;;;;;;;5.73;1.47;;;25.50;99.90;;;;;;5120119;28;20669;-70
2023/08/31 03:22:20;;;;;;;3.83;1.30;;;25.30;99.90;;;;;;5121183;28;20217;-69
2023/08/31 03:24:47;;;;;;;8.27;1.40;;;25.40;99.90;;;;;;5121282;28;20671;-69
2023/08/31 03:27:16;;;;;;;3.93;1.10;;;25.50;99.90;;;;;;5120079;28;20250;-69
2023/08/31 03:29:43;;;;;;;5.83;1.20;;;25.70;99.90;;;;;;5122894;28;20174;-69
2023/08/31 03:32:11;;;;;;;3.67;1.33;;;25.30;99.90;;;;;;5116340;28;20194;-69
2023/08/31 03:34:38;;;;;;;3.67;1.30;;;24.60;99.90;;;;;;5111164;28;20181;-69
2023/08/31 03:37:05;;;;;;;3.73;1.30;;;24.10;99.90;;;;;;5111233;28;20162;-69
2023/08/31 03:39:32;;;;;;;5.17;1.30;;;24.30;99.90;;;;;;5110931;28;20175;-69
2023/08/31 03:42:00;;;;;;;5.53;1.20;;;24.30;99.90;;;;;;5110713;28;20174;-69
2023/08/31 03:44:27;;;;;;;6.07;1.40;;;23.90;99.90;;;;;;5117412;28;20226;-68
2023/08/31 03:46:55;;;;;;;3.27;1.27;;;23.30;99.90;;;;;;5122052;28;20667;-68
2023/08/31 03:49:22;;;;;;;3.80;1.07;;;23.10;99.90;;;;;;5121838;28;20185;-69
2023/08/31 03:51:49;;;;;;;7.07;1.47;;;23.90;99.90;;;;;;5122792;28;20538;-68
2023/08/31 03:57:39;;;;;;;3.03;1.20;;;24.70;99.90;;;;;;5110092;28;20202;-69
2023/08/31 04:00:10;;;;;;;5.93;1.53;;;24.80;99.90;;;;;;5111071;28;20256;-69
2023/08/31 04:02:37;;;;;;;4.27;1.10;;;25.00;99.90;;;;;;5110178;28;20300;-69
2023/08/31 04:05:05;;;;;;;8.23;1.37;;;24.70;99.90;;;;;;5111015;28;20305;-69
2023/08/31 04:07:34;;;;;;;5.47;1.57;;;24.60;99.90;;;;;;5110942;28;20167;-69
2023/08/31 04:10:03;;;;;;;5.90;1.33;;;24.00;99.90;;;;;;5109969;28;20175;-69
2023/08/31 04:12:30;;;;;;;5.70;1.40;;;23.50;99.90;;;;;;5110665;28;20198;-69
2023/08/31 04:14:58;;;;;;;2.67;1.00;;;23.10;99.90;;;;;;5110744;28;20280;-69
2023/08/31 04:17:25;;;;;;;5.87;1.70;;;22.70;99.90;;;;;;5110279;28;20174;-69
2023/08/31 04:19:54;;;;;;;7.33;1.70;;;22.50;99.90;;;;;;5110636;28;20548;-69
2023/08/31 04:22:21;;;;;;;5.13;1.30;;;22.20;99.90;;;;;;5114261;28;20695;-69
2023/08/31 04:24:49;;;;;;;4.03;1.17;;;21.90;99.90;;;;;;5113983;28;20212;-69
2023/08/31 04:27:16;;;;;;;3.70;1.17;;;21.80;99.90;;;;;;5114493;28;20658;-69
2023/08/31 04:29:43;;;;;;;3.87;1.37;;;21.70;99.90;;;;;;5114360;28;20616;-69
2023/08/31 04:32:11;;;;;;;6.57;1.57;;;21.50;99.90;;;;;;5113462;28;20193;-69
2023/08/31 04:34:38;;;;;;;4.57;1.60;;;21.30;99.90;;;;;;5114668;28;20187;-69
2023/08/31 04:37:05;;;;;;;7.40;1.60;;;21.30;99.90;;;;;;5114636;28;20181;-69
2023/08/31 04:39:33;;;;;;;5.50;1.37;;;21.20;99.90;;;;;;5114421;28;20551;-69
2023/08/31 04:42:00;;;;;;;6.23;1.20;;;21.30;99.90;;;;;;5114555;28;20178;-69
2023/08/31 04:44:27;;;;;;;7.63;1.63;;;21.60;99.90;;;;;;5114671;28;20199;-69
2023/08/31 04:46:55;;;;;;;4.53;1.40;;;21.60;99.90;;;;;;5114107;28;20632;-69
2023/08/31 04:49:22;;;;;;;7.13;1.70;;;21.60;99.90;;;;;;5114392;28;20659;-69
2023/08/31 04:51:50;;;;;;;9.33;1.53;;;21.40;99.90;;;;;;5113993;28;20245;-69
2023/08/31 04:54:17;;;;;;;5.40;1.50;;;21.40;99.90;;;;;;5113942;28;20186;-69
2023/08/31 04:56:45;;;;;;;11.77;2.97;;;21.40;99.90;;;;;;5114492;28;20190;-68
2023/08/31 04:59:12;;;;;;;6.10;1.40;;;21.20;99.90;;;;;;5113864;28;20302;-67
2023/08/31 05:01:39;;;;;;;6.37;1.40;;;21.00;99.90;;;;;;5113969;28;20175;-68
2023/08/31 05:04:07;;;;;;;8.77;2.20;;;21.00;99.90;;;;;;5114372;28;20521;-68
2023/08/31 05:06:34;;;;;;;11.13;1.70;;;20.80;99.90;;;;;;5114231;28;20183;-68
2023/08/31 05:09:02;;;;;;;6.00;1.50;;;20.90;99.90;;;;;;5113338;28;20198;-68
2023/08/31 05:11:30;;;;;;;9.03;1.93;;;20.90;99.90;;;;;;5114315;28;20190;-68
2023/08/31 05:13:57;;;;;;;9.90;1.70;;;21.00;99.90;;;;;;5114061;28;20202;-68
2023/08/31 05:16:24;;;;;;;10.27;2.20;;;21.10;99.90;;;;;;5116361;27;20216;-68
2023/08/31 05:18:52;;;;;;;8.77;2.10;;;21.30;99.90;;;;;;5121417;27;20651;-68
2023/08/31 05:21:20;;;;;;;7.83;1.67;;;21.40;99.90;;;;;;5095745;28;20228;-68
2023/08/31 05:23:48;;;;;;;7.40;1.80;;;21.50;99.90;;;;;;5113123;28;20240;-68
2023/08/31 05:26:15;;;;;;;5.30;1.80;;;21.60;99.90;;;;;;5114745;28;20214;-68
2023/08/31 05:28:43;;;;;;;4.10;1.37;;;21.70;99.90;;;;;;5115299;28;20177;-69
2023/08/31 05:31:11;;;;;;;7.43;1.97;;;21.70;99.90;;;;;;5115297;28;20214;-69
2023/08/31 05:33:39;;;;;;;9.00;1.90;;;21.70;99.90;;;;;;5115119;28;20170;-68
2023/08/31 05:36:07;;;;;;;9.63;1.90;;;21.60;99.90;;;;;;5114946;28;20275;-69
2023/08/31 05:38:34;;;;;;;6.63;1.53;;;21.40;99.90;;;;;;5114969;28;20175;-68
2023/08/31 05:41:09;;;;;;;11.33;2.23;;;21.20;99.90;;;;;;5100016;28;21127;-68
2023/08/31 05:43:40;;;;;;;7.70;1.70;;;21.30;99.90;;;;;;5106597;28;20170;-69
2023/08/31 05:46:09;;;;;;;7.30;1.60;;;21.40;99.90;;;;;;5113506;28;20215;-69
2023/08/31 05:48:40;;;;;;;8.50;1.63;;;21.40;99.90;;;;;;5113326;28;20206;-69
2023/08/31 05:51:07;;;;;;;7.63;1.80;;;21.30;99.90;;;;;;5113254;28;20179;-69
2023/08/31 05:53:35;;;;;;;7.23;1.57;;;21.20;99.90;;;;;;5113152;28;20174;-68
2023/08/31 05:56:03;;;;;;;9.53;1.60;;;21.00;99.90;;;;;;5112965;28;20171;-69
2023/08/31 05:58:33;;;;;;;6.80;1.90;;;20.70;99.90;;;;;;5094561;28;20190;-68
2023/08/31 06:01:04;;;;;;;8.10;1.50;;;20.80;99.90;;;;;;5113296;28;20202;-70
2023/08/31 06:03:32;;;;;;;9.20;1.50;;;20.70;99.90;;;;;;5112921;28;21808;-70
2023/08/31 06:06:03;;;;;;;9.63;2.33;;;20.60;99.90;;;;;;5112548;28;20218;-69
2023/08/31 06:08:31;;;;;;;11.90;2.43;;;20.70;99.90;;;;;;5112813;28;20231;-68
2023/08/31 06:10:58;;;;;;;6.43;1.60;;;20.60;99.90;;;;;;5112592;28;20177;-68
2023/08/31 06:13:27;;;;;;;7.20;1.70;;;20.60;99.90;;;;;;5113046;28;20176;-68
2023/08/31 06:15:56;;;;;;;7.70;1.93;;;20.50;99.90;;;;;;5112561;28;20214;-69
2023/08/31 06:18:24;;;;;;;5.47;1.63;;;20.40;99.90;;;;;;5112257;28;20583;-69
2023/08/31 06:20:52;;;;;;;7.87;1.60;;;20.30;99.90;;;;;;5112627;28;20175;-70
2023/08/31 06:23:19;;;;;;;10.83;2.40;;;20.20;99.90;;;;;;5112642;28;20227;-69
2023/08/31 06:25:47;;;;;;;11.17;1.90;;;20.10;99.90;;;;;;5112219;28;20252;-69
2023/08/31 06:28:16;;;;;;;13.23;2.30;;;20.00;99.90;;;;;;5112788;28;20224;-68
2023/08/31 06:30:46;;;;;;;9.73;2.30;;;19.90;99.90;;;;;;5112923;28;20202;-70
2023/08/31 06:33:15;;;;;;;6.77;1.63;;;19.70;99.90;;;;;;5112378;28;20211;-69
2023/08/31 06:35:42;;;;;;;9.10;2.00;;;19.60;99.90;;;;;;5112381;28;20273;-69
2023/08/31 06:38:10;;;;;;;4.00;1.40;;;19.60;99.90;;;;;;5112422;28;20543;-70
2023/08/31 06:40:38;;;;;;;9.80;1.80;;;19.60;99.90;;;;;;5111595;28;20182;-70
2023/08/31 06:43:06;;;;;;;5.37;1.70;;;19.60;99.90;;;;;;5112000;28;20182;-69
2023/08/31 06:45:34;;;;;;;6.77;2.03;;;19.60;99.90;;;;;;5112034;28;20212;-68
2023/08/31 06:48:02;;;;;;;8.07;1.63;;;19.60;99.90;;;;;;5121135;27;20174;-68
2023/08/31 06:50:30;;;;;;;11.43;2.47;;;19.60;99.90;;;;;;5132797;27;20196;-68
2023/08/31 06:52:58;;;;;;;12.27;2.30;;;19.60;99.90;;;;;;5132943;27;20260;-69
2023/08/31 06:55:26;;;;;;;6.47;1.90;;;19.60;99.90;;;;;;5121491;27;20708;-69
2023/08/31 06:57:53;;;;;;;7.70;1.90;;;19.50;99.90;;;;;;5112000;28;20211;-69
2023/08/31 07:00:21;;;;;;;7.47;1.90;;;19.50;99.90;;;;;;5112046;28;20186;-68
2023/08/31 07:02:49;;;;;;;8.77;1.90;;;19.40;99.90;;;;;;5111685;28;20193;-69
2023/08/31 07:05:17;;;;;;;6.87;1.73;;;19.30;99.90;;;;;;5111735;28;20618;-69
2023/08/31 07:07:44;;;;;;;7.70;2.13;;;19.10;99.90;;;;;;5111723;28;20640;-68
2023/08/31 07:10:12;;;;;;;11.17;2.30;;;18.90;99.90;;;;;;5111194;28;20179;-69
2023/08/31 07:12:40;;;;;;;9.80;1.93;;;18.90;99.90;;;;;;5111548;28;20173;-68
2023/08/31 07:15:08;;;;;;;10.03;2.37;;;18.70;99.90;;;;;;5112632;28;20308;-69
2023/08/31 07:17:36;;;;;;;8.90;1.77;;;18.70;99.90;;;;;;5113319;28;20176;-68
2023/08/31 07:20:07;;;;;;;12.43;2.10;;;18.60;99.90;;;;;;5113444;28;20577;-69
2023/08/31 07:22:36;;;;;;;7.10;1.93;;;18.40;99.90;;;;;;5113064;28;20230;-68
2023/08/31 07:25:04;;;;;;;15.70;2.33;;;18.30;99.90;;;;;;5091627;28;20198;-69
2023/08/31 07:27:32;;;;;;;14.57;2.43;;;18.20;99.90;;;;;;5111628;28;20186;-69
2023/08/31 07:29:59;;;;;;;12.23;2.20;;;18.00;99.90;;;;;;5111794;28;20177;-68
2023/08/31 07:32:28;;;;;;;9.83;2.73;;;17.90;99.90;;;;;;5111095;28;20197;-68
2023/08/31 07:34:56;;;;;;;7.80;1.83;;;17.80;99.90;;;;;;5111718;28;20188;-69
2023/08/31 07:37:24;;;;;;;9.83;2.63;;;17.70;99.90;;;;;;5111693;28;20627;-69
2023/08/31 07:39:51;;;;;;;15.20;2.80;;;17.60;99.90;;;;;;5111385;28;20196;-68
2023/08/31 07:42:19;;;;;;;9.20;2.00;;;17.50;99.90;;;;;;5111252;28;20186;-68
2023/08/31 07:44:47;;;;;;;17.13;2.27;;;17.40;99.90;;;;;;5115687;28;20205;-70
2023/08/31 07:47:15;;;;;;;7.63;2.40;;;17.30;99.90;;;;;;5099463;28;20689;-69
2023/08/31 07:49:44;;;;;;;8.60;1.90;;;17.30;99.90;;;;;;5121390;28;20191;-69
2023/08/31 07:52:11;;;;;;;9.27;2.20;;;17.10;99.90;;;;;;5122271;28;20182;-68
2023/08/31 07:54:39;;;;;;;8.97;2.00;;;17.00;99.90;;;;;;5126434;27;20178;-69
2023/08/31 07:57:07;;;;;;;7.33;2.17;;;16.90;99.90;;;;;;5115223;28;20179;-69
2023/08/31 07:59:35;;;;;;;13.07;2.87;;;16.90;99.90;;;;;;5115358;28;20706;-70
2023/08/31 08:02:02;;;;;;;18.47;2.60;;;16.90;99.90;;;;;;5096472;28;20383;-68
2023/08/31 08:04:31;;;;;;;12.77;2.83;;;16.80;99.90;;;;;;5115332;28;20669;-70
2023/08/31 08:06:58;;;;;;;10.17;2.37;;;16.80;99.90;;;;;;5115462;28;20178;-69
2023/08/31 08:09:26;;;;;;;8.43;2.10;;;16.80;99.90;;;;;;5114951;28;20197;-70
2023/08/31 08:11:54;;;;;;;8.47;2.47;;;16.70;99.90;;;;;;5124825;27;20592;-70
2023/08/31 08:14:22;;;;;;;11.40;3.00;;;16.60;99.90;;;;;;5106189;27;20185;-70
2023/08/31 08:16:49;;;;;;;14.83;2.33;;;16.60;99.90;;;;;;5125456;27;20651;-69
2023/08/31 08:19:23;;;;;;;9.63;2.20;;;16.50;99.90;;;;;;5123276;27;20209;-70
2023/08/31 08:21:51;;;;;;;9.33;2.77;;;16.30;99.90;;;;;;5120112;27;20229;-70
2023/08/31 08:24:19;;;;;;;9.13;2.00;;;16.30;99.90;;;;;;5118612;27;20201;-69
2023/08/31 08:26:47;;;;;;;5.93;1.80;;;16.20;99.90;;;;;;5123538;27;20182;-69
2023/08/31 08:29:15;;;;;;;12.17;2.80;;;16.10;99.90;;;;;;5117997;27;20203;-70
2023/08/31 08:31:43;;;;;;;8.67;2.70;;;16.00;99.90;;;;;;5114583;28;20219;-69
2023/08/31 08:34:11;;;;;;;4.43;1.80;;;15.90;99.90;;;;;;5114872;28;20190;-69
2023/08/31 08:36:39;;;;;;;10.67;2.50;;;15.90;99.90;;;;;;5119904;27;20183;-70
2023/08/31 08:39:07;;;;;;;10.47;2.60;;;15.80;99.90;;;;;;5113692;28;20194;-70
2023/08/31 08:41:35;;;;;;;11.70;2.47;;;15.70;99.90;;;;;;5114788;28;20177;-71
2023/08/31 08:44:06;;;;;;;13.17;3.33;;;15.70;99.90;;;;;;5114815;28;20189;-69
2023/08/31 08:46:35;;;;;;;14.30;2.30;;;15.80;99.90;;;;;;5113572;28;20219;-69
2023/08/31 08:49:04;;;;;;;9.93;2.73;;;15.70;99.90;;;;;;5096138;28;20621;-69
2023/08/31 08:51:32;;;;;;;8.90;2.57;;;15.70;99.90;;;;;;5114064;28;20183;-68
2023/08/31 08:54:01;;;;;;;9.10;2.60;;;15.80;99.90;;;;;;5115705;28;20207;-70
2023/08/31 08:56:28;;;;;;;11.10;3.23;;;15.80;99.90;;;;;;5115911;28;20231;-69
2023/08/31 08:58:56;;;;;;;7.57;2.80;;;15.80;99.90;;;;;;5115096;28;20553;-70
2023/08/31 09:01:25;;;;;;;7.47;2.27;;;15.70;99.90;;;;;;5116065;28;20178;-69
2023/08/31 09:03:53;;;;;;;9.80;2.67;;;15.60;99.90;;;;;;5097275;28;20316;-68
2023/08/31 09:06:21;;;;;;;9.80;2.33;;;15.70;99.90;;;;;;5094747;28;20269;-69
2023/08/31 09:08:58;;;;;;;6.97;2.10;;;15.70;99.90;;;;;;5109086;28;20213;-69
2023/08/31 09:11:26;;;;;;;11.47;2.90;;;15.80;99.90;;;;;;5112666;28;20190;-69
2023/08/31 09:13:56;;;;;;;10.43;3.20;;;15.80;99.90;;;;;;5115707;28;20576;-69
2023/08/31 09:16:31;;;;;;;13.13;3.43;;;15.90;99.90;;;;;;5115491;28;20307;-68
2023/08/31 09:19:00;;;;;;;11.93;2.90;;;15.90;99.90;;;;;;5115325;28;20181;-69
2023/08/31 09:21:40;;;;;;;9.03;2.83;;;15.90;99.90;;;;;;5115274;28;20222;-68
2023/08/31 09:24:10;;;;;;;12.67;3.30;;;15.90;99.90;;;;;;5115294;28;20178;-69
2023/08/31 09:26:54;;;;;;;10.47;2.93;;;16.00;99.90;;;;;;5096618;28;20195;-69
2023/08/31 09:29:22;;;;;;;12.10;3.20;;;15.90;99.90;;;;;;5114971;28;20175;-69
2023/08/31 09:31:50;;;;;;;6.43;2.30;;;16.00;99.90;;;;;;5115515;28;20167;-69
2023/08/31 09:34:18;;;;;;;15.70;3.67;;;16.00;99.90;;;;;;5114892;28;20187;-69
2023/08/31 09:36:46;;;;;;;15.87;3.57;;;16.00;99.90;;;;;;5114661;28;20214;-69
2023/08/31 09:39:15;;;;;;;12.97;3.97;;;16.00;99.90;;;;;;5114177;28;20192;-68
2023/08/31 09:42:09;;;;;;;10.70;3.97;;;16.00;99.90;;;;;;5114756;28;20640;-68
2023/08/31 09:44:44;;;;;;;13.77;4.00;;;16.10;99.90;;;;;;5112626;28;20214;-68
2023/08/31 09:47:12;;;;;;;14.87;4.20;;;16.10;99.90;;;;;;5114392;28;20182;-69
2023/08/31 09:49:42;;;;;;;11.27;3.87;;;16.10;99.90;;;;;;5114452;28;20589;-68
2023/08/31 09:52:10;;;;;;;11.10;3.43;;;16.10;99.90;;;;;;5114422;28;20214;-69
2023/08/31 09:54:39;;;;;;;14.60;3.40;;;16.10;99.90;;;;;;5096283;28;20183;-68
2023/08/31 09:57:07;;;;;;;10.30;3.23;;;16.10;99.90;;;;;;5114121;28;20190;-68
2023/08/31 09:59:35;;;;;;;13.10;2.97;;;16.00;99.90;;;;;;5114804;28;20184;-68
2023/08/31 10:02:03;;;;;;;12.30;2.77;;;16.00;99.90;;;;;;5114357;28;20673;-70
2023/08/31 10:04:32;;;;;;;9.63;2.63;;;16.00;99.90;;;;;;5114362;28;20655;-69
2023/08/31 10:07:01;;;;;;;16.17;3.60;;;16.00;99.90;;;;;;5114178;28;20186;-69
2023/08/31 10:09:29;;;;;;;13.30;3.17;;;16.00;99.90;;;;;;5114288;28;20179;-69
2023/08/31 10:11:57;;;;;;;11.27;2.40;;;15.90;99.90;;;;;;5115036;28;20272;-69
2023/08/31 10:14:25;;;;;;;22.77;3.27;;;15.90;99.90;;;;;;5116601;28;20177;-69
2023/08/31 10:16:56;;;;;;;12.83;3.00;;;15.90;99.90;;;;;;5114195;28;20193;-69
2023/08/31 10:19:24;;;;;;;16.50;3.20;;;15.80;99.90;;;;;;5093012;28;20171;-69
2023/08/31 10:21:52;;;;;;;13.00;3.03;;;15.60;99.90;;;;;;5112697;28;20221;-69
2023/08/31 10:24:39;;;;;;;13.17;3.20;;;15.50;99.90;;;;;;5114210;28;20175;-69
2023/08/31 10:27:27;;;;;;;7.13;2.30;;;15.40;99.90;;;;;;5112542;28;20186;-68
2023/08/31 10:29:55;;;;;;;14.40;2.70;;;15.30;99.90;;;;;;5113564;28;20644;-68
2023/08/31 10:32:23;;;;;;;9.87;3.07;;;15.20;99.90;;;;;;5113696;28;20177;-68
2023/08/31 10:35:07;;;;;;;12.37;2.90;;;15.20;99.90;;;;;;5113592;28;20182;-69
2023/08/31 10:37:35;;;;;;;14.23;3.47;;;15.10;99.90;;;;;;5113152;28;20178;-68
2023/08/31 10:40:13;;;;;;;12.57;2.87;;;15.10;99.90;;;;;;5113593;28;20180;-69
2023/08/31 10:42:47;;;;;;;9.77;3.20;;;14.90;99.90;;;;;;5113446;28;20174;-69
2023/08/31 10:45:20;;;;;;;7.87;2.57;;;14.70;99.90;;;;;;5113011;28;20280;-69
2023/08/31 10:47:49;;;;;;;11.93;3.17;;;14.60;99.90;;;;;;5112786;28;20174;-68
2023/08/31 10:50:26;;;;;;;9.30;2.90;;;14.50;99.90;;;;;;5113039;28;20519;-69
2023/08/31 10:52:54;;;;;;;9.83;3.07;;;14.50;99.90;;;;;;5113407;28;20170;-69
2023/08/31 10:55:26;;;;;;;12.90;3.40;;;14.50;99.90;;;;;;5113295;28;20256;-68
2023/08/31 10:57:57;;;;;;;13.47;3.23;;;14.50;99.90;;;;;;5112919;28;20178;-69
2023/08/31 11:00:56;;;;;;;11.43;3.20;;;14.40;99.90;;;;;;5095011;28;20190;-69
2023/08/31 11:03:24;;;;;;;10.93;2.83;;;14.30;99.90;;;;;;5113106;28;20251;-69
2023/08/31 11:05:53;;;;;;;12.17;3.20;;;14.10;99.90;;;;;;5112519;28;20206;-68
2023/08/31 11:08:26;;;;;;;13.80;3.37;;;14.00;99.90;;;;;;5112981;28;20169;-69
2023/08/31 11:10:54;;;;;;;7.33;2.93;;;14.00;99.90;;;;;;5113021;28;20494;-68
2023/08/31 11:13:24;;;;;;;9.17;3.00;;;13.90;99.90;;;;;;5112857;28;20227;-68
2023/08/31 11:15:52;;;;;;;12.13;2.93;;;14.00;99.90;;;;;;5112902;28;20173;-68
2023/08/31 11:18:22;;;;;;;10.43;2.50;;;13.80;99.90;;;;;;5112388;28;20551;-69
2023/08/31 11:20:50;;;;;;;10.93;3.50;;;13.60;99.90;;;;;;5112868;28;20172;-69
2023/08/31 11:23:18;;;;;;;14.13;3.57;;;13.60;99.90;;;;;;5112840;28;20198;-68
2023/08/31 11:25:47;;;;;;;12.63;3.73;;;13.50;99.90;;;;;;5112832;28;20784;-68
2023/08/31 11:28:16;;;;;;;8.37;3.30;;;13.50;99.90;;;;;;5112813;28;20170;-69
2023/08/31 11:30:46;;;;;;;12.10;3.33;;;13.40;99.90;;;;;;5115457;28;20186;-68
2023/08/31 11:33:14;;;;;;;10.50;3.10;;;13.30;99.90;;;;;;5117008;28;20181;-68
2023/08/31 11:35:44;;;;;;;16.90;3.90;;;13.20;99.90;;;;;;5116918;28;20632;-68
2023/08/31 11:38:12;;;;;;;9.47;3.13;;;13.20;99.90;;;;;;5116718;28;20554;-68
2023/08/31 11:40:41;;;;;;;13.43;4.00;;;13.20;99.90;;;;;;5116908;28;20281;-68
2023/08/31 11:43:09;;;;;;;9.27;3.57;;;13.20;99.90;;;;;;5116925;28;20181;-69
2023/08/31 11:45:38;;;;;;;9.77;3.73;;;13.20;99.90;;;;;;5098093;28;20598;-69
2023/08/31 11:48:08;;;;;;;15.90;3.73;;;13.20;99.90;;;;;;5116821;28;20634;-67
2023/08/31 11:50:39;;;;;;;10.93;4.27;;;13.30;99.90;;;;;;5116623;28;20654;-68
2023/08/31 11:53:07;;;;;;;14.27;5.17;;;13.20;99.90;;;;;;5116450;28;20178;-68
2023/08/31 11:55:34;;;;;;;17.53;5.50;;;13.10;99.90;;;;;;5116839;28;20225;-68
2023/08/31 11:58:03;;;;;;;14.07;4.23;;;13.10;99.90;;;;;;5116033;28;20181;-68
2023/08/31 12:00:31;;;;;;;15.03;4.10;;;13.00;99.90;;;;;;5116703;28;20205;-67
2023/08/31 12:02:59;;;;;;;14.37;4.20;;;13.00;99.90;;;;;;5116444;28;20181;-69
2023/08/31 12:05:28;;;;;;;6.93;2.83;;;13.00;99.90;;;;;;5116406;28;20208;-68
2023/08/31 12:07:57;;;;;;;14.83;4.10;;;13.00;99.90;;;;;;5116239;28;20193;-67
2023/08/31 12:10:28;;;;;;;15.53;4.37;;;13.10;99.90;;;;;;5116228;28;20215;-67
2023/08/31 12:13:09;;;;;;;12.67;4.23;;;13.00;99.90;;;;;;5116199;28;20550;-69
2023/08/31 12:15:37;;;;;;;11.20;3.17;;;12.90;99.90;;;;;;5116247;28;20166;-69
2023/08/31 12:18:14;;;;;;;9.63;3.67;;;12.90;99.90;;;;;;5115744;28;20224;-69
2023/08/31 12:20:53;;;;;;;10.17;2.90;;;12.80;99.90;;;;;;5116201;28;20222;-69
2023/08/31 12:23:22;;;;;;;10.50;3.33;;;12.70;99.90;;;;;;5116181;28;20206;-68
2023/08/31 12:25:51;;;;;;;12.97;3.70;;;12.70;99.90;;;;;;5115633;28;20205;-69
2023/08/31 12:28:20;;;;;;;10.77;3.80;;;12.60;99.90;;;;;;5115844;28;20184;-69
2023/08/31 12:30:56;;;;;;;15.73;5.33;;;12.70;99.90;;;;;;5115863;28;20188;-69
2023/08/31 12:33:25;;;;;;;18.77;5.60;;;12.70;99.90;;;;;;5115829;28;20554;-69
2023/08/31 12:35:52;;;;;;;17.93;4.80;;;12.80;99.90;;;;;;5115280;28;20186;-67
2023/08/31 12:38:21;;;;;;;11.37;3.83;;;12.70;99.90;;;;;;5115366;28;20184;-69
2023/08/31 12:40:49;;;;;;;7.70;3.40;;;12.70;99.90;;;;;;5113879;28;20213;-67
2023/08/31 12:43:17;;;;;;;11.73;3.90;;;12.70;99.90;;;;;;5115141;28;20170;-68
2023/08/31 12:45:44;;;;;;;21.87;3.57;;;12.60;99.90;;;;;;5119755;27;20304;-68
2023/08/31 12:48:13;;;;;;;9.27;3.60;;;12.60;99.90;;;;;;5125744;27;20205;-67
2023/08/31 12:50:40;;;;;;;9.20;3.80;;;12.60;99.90;;;;;;5122397;27;20180;-68
2023/08/31 12:53:08;;;;;;;8.70;3.27;;;12.60;99.90;;;;;;5124602;27;20243;-67
2023/08/31 12:55:36;;;;;;;11.70;3.67;;;12.60;99.90;;;;;;5124528;27;20174;-68
2023/08/31 12:58:03;;;;;;;16.37;4.00;;;12.60;99.90;;;;;;5121534;27;20308;-67
2023/08/31 13:00:31;;;;;;;14.63;5.13;;;12.60;99.90;;;;;;5118728;27;20497;-68
2023/08/31 13:03:00;;;;;;;12.33;3.70;;;12.70;99.90;;;;;;5111804;28;20185;-68
2023/08/31 13:05:28;;;;;;;13.50;3.90;;;12.80;99.90;;;;;;5114862;28;20234;-68
2023/08/31 13:07:56;;;;;;;8.53;3.50;;;12.80;99.90;;;;;;5114501;28;20677;-68
2023/08/31 13:10:24;;;;;;;16.53;4.77;;;12.90;99.90;;;;;;5114615;28;20189;-68